sensor_id;sensor_type;location;lat;lon;timestamp;pressure;altitude;pressure_sealevel;temperature;humidity
74437;BME280;62868;52.360;30.424;2022-10-16T00:03:58;1037.6;;;6.7;57.6
74437;BME280;62868;52.360;30.424;2022-10-16T00:08:39;1037.6;;;6.7;57.7
74437;BME280;62868;52.360;30.424;2022-10-16T00:14:21;1037.6;;;6.7;57.7
74437;BME280;62868;52.360;30.424;2022-10-16T00:19:21;1037.6;;;6.7;57.7
74437;BME280;62868;52.360;30.424;2022-10-16T00:24:05;1037.6;;;6.6;57.8
74437;BME280;62868;52.360;30.424;2022-10-16T00:29:21;1037.6;;;6.5;57.9
74437;BME280;62868;52.360;30.424;2022-10-16T00:34:15;1037.7;;;6.5;58
74437;BME280;62868;52.360;30.424;2022-10-16T00:39:07;1037.7;;;6.5;58.1
74437;BME280;62868;52.360;30.424;2022-10-16T00:43:58;1037.7;;;6.4;58.2
74437;BME280;62868;52.360;30.424;2022-10-16T00:49:03;1037.8;;;6.4;58.2
74437;BME280;62868;52.360;30.424;2022-10-16T00:53:39;1037.8;;;6.3;58.3
74437;BME280;62868;52.360;30.424;2022-10-16T00:58:51;1037.7;;;6.2;58.4
74437;BME280;62868;52.360;30.424;2022-10-16T01:03:47;1037.8;;;6.1;58.5
74437;BME280;62868;52.360;30.424;2022-10-16T01:09:21;1037.8;;;6.1;58.6
74437;BME280;62868;52.360;30.424;2022-10-16T01:14:11;1037.8;;;6;58.7
74437;BME280;62868;52.360;30.424;2022-10-16T01:19:02;1037.8;;;5.8;58.8
74437;BME280;62868;52.360;30.424;2022-10-16T01:24:06;1037.9;;;5.8;59
74437;BME280;62868;52.360;30.424;2022-10-16T01:29:02;1037.9;;;5.7;59.1
74437;BME280;62868;52.360;30.424;2022-10-16T01:33:40;1037.9;;;5.7;59.2
74437;BME280;62868;52.360;30.424;2022-10-16T01:38:52;1037.9;;;5.6;59.3
74437;BME280;62868;52.360;30.424;2022-10-16T01:43:50;1037.8;;;5.5;59.5
74437;BME280;62868;52.360;30.424;2022-10-16T01:48:53;1037.9;;;5.4;59.6
74437;BME280;62868;52.360;30.424;2022-10-16T01:54:11;1037.9;;;5.4;59.6
74437;BME280;62868;52.360;30.424;2022-10-16T01:59:02;1038;;;5.3;59.8
74437;BME280;62868;52.360;30.424;2022-10-16T02:04:16;1038;;;5.3;59.9
74437;BME280;62868;52.360;30.424;2022-10-16T02:09:07;1038.1;;;5.3;60
74437;BME280;62868;52.360;30.424;2022-10-16T02:13:58;1038.1;;;5.3;60.1
74437;BME280;62868;52.360;30.424;2022-10-16T02:19:09;1038.1;;;5.4;60.2
74437;BME280;62868;52.360;30.424;2022-10-16T02:24:21;1038.1;;;5.4;60.2
74437;BME280;62868;52.360;30.424;2022-10-16T02:28:40;1038.1;;;5.5;60.2
74437;BME280;62868;52.360;30.424;2022-10-16T02:33:51;1038.1;;;5.5;60.3
74437;BME280;62868;52.360;30.424;2022-10-16T02:38:49;1038.1;;;5.5;60.4
74437;BME280;62868;52.360;30.424;2022-10-16T02:44:19;1038.1;;;5.5;60.5
74437;BME280;62868;52.360;30.424;2022-10-16T02:49:15;1038.1;;;5.5;60.6
74437;BME280;62868;52.360;30.424;2022-10-16T02:54:23;1038;;;5.5;60.6
74437;BME280;62868;52.360;30.424;2022-10-16T02:59:01;1038;;;5.5;60.7
74437;BME280;62868;52.360;30.424;2022-10-16T03:04:15;1038;;;5.5;60.8
74437;BME280;62868;52.360;30.424;2022-10-16T03:09:25;1038;;;5.5;60.8
74437;BME280;62868;52.360;30.424;2022-10-16T03:14:01;1038;;;5.5;60.9
74437;BME280;62868;52.360;30.424;2022-10-16T03:18:39;1038.2;;;5.5;60.9
74437;BME280;62868;52.360;30.424;2022-10-16T03:23:51;1038.2;;;5.5;61
74437;BME280;62868;52.360;30.424;2022-10-16T03:29:03;1038.2;;;5.5;61
74437;BME280;62868;52.360;30.424;2022-10-16T03:34:03;1038.3;;;5.4;61.1
74437;BME280;62868;52.360;30.424;2022-10-16T03:39:01;1038.3;;;5.4;61.1
74437;BME280;62868;52.360;30.424;2022-10-16T03:44:25;1038.3;;;5.4;61.2
74437;BME280;62868;52.360;30.424;2022-10-16T03:49:25;1038.4;;;5.4;61.3
74437;BME280;62868;52.360;30.424;2022-10-16T03:53:39;1038.4;;;5.4;61.3
74437;BME280;62868;52.360;30.424;2022-10-16T03:59:27;1038.4;;;5.3;61.3
74437;BME280;62868;52.360;30.424;2022-10-16T04:04:25;1038.4;;;5.3;61.3
74437;BME280;62868;52.360;30.424;2022-10-16T04:09:23;1038.4;;;5.3;61.4
74437;BME280;62868;52.360;30.424;2022-10-16T04:13:39;1038.4;;;5.2;61.5
74437;BME280;62868;52.360;30.424;2022-10-16T04:18:39;1038.5;;;5.2;61.5
74437;BME280;62868;52.360;30.424;2022-10-16T04:24:27;1038.6;;;5.2;61.6
74437;BME280;62868;52.360;30.424;2022-10-16T04:29:15;1038.7;;;5.1;61.6
74437;BME280;62868;52.360;30.424;2022-10-16T04:34:05;1038.7;;;5.1;61.6
74437;BME280;62868;52.360;30.424;2022-10-16T04:39:17;1038.8;;;5.1;61.7
74437;BME280;62868;52.360;30.424;2022-10-16T04:44:13;1038.9;;;5.1;61.6
74437;BME280;62868;52.360;30.424;2022-10-16T04:49:03;1039;;;5.1;61.6
74437;BME280;62868;52.360;30.424;2022-10-16T04:54:13;1039.1;;;5.2;61.5
74437;BME280;62868;52.360;30.424;2022-10-16T04:59:27;1039.1;;;5.2;61.5
74437;BME280;62868;52.360;30.424;2022-10-16T05:03:39;1039.1;;;5.3;61.4
74437;BME280;62868;52.360;30.424;2022-10-16T05:09:03;1039.2;;;5.4;61.3
74437;BME280;62868;52.360;30.424;2022-10-16T05:14:27;1039.2;;;5.5;61.3
74437;BME280;62868;52.360;30.424;2022-10-16T05:19:17;1039.2;;;5.7;61.1
74437;BME280;62868;52.360;30.424;2022-10-16T05:24:27;1039.2;;;5.9;61
74437;BME280;62868;52.360;30.424;2022-10-16T05:29:03;1039.3;;;6.2;60.7
74437;BME280;62868;52.360;30.424;2022-10-16T05:34:17;1039.3;;;6.5;60.4
74437;BME280;62868;52.360;30.424;2022-10-16T05:39:27;1039.4;;;6.7;60.2
74437;BME280;62868;52.360;30.424;2022-10-16T05:44:15;1039.5;;;6.9;60
74437;BME280;62868;52.360;30.424;2022-10-16T05:48:47;1039.6;;;7.2;59.7
74437;BME280;62868;52.360;30.424;2022-10-16T05:53:53;1039.6;;;7.4;59.5
74437;BME280;62868;52.360;30.424;2022-10-16T05:58:55;1039.6;;;7.6;59.3
74437;BME280;62868;52.360;30.424;2022-10-16T06:04:05;1039.6;;;7.8;59
74437;BME280;62868;52.360;30.424;2022-10-16T06:09:01;1039.7;;;7.9;58.8
74437;BME280;62868;52.360;30.424;2022-10-16T06:14:27;1039.8;;;8.3;58.4
74437;BME280;62868;52.360;30.424;2022-10-16T06:19:27;1039.8;;;8.6;58.2
74437;BME280;62868;52.360;30.424;2022-10-16T06:24:03;1039.8;;;8.8;57.9
74437;BME280;62868;52.360;30.424;2022-10-16T06:29:27;1039.8;;;9.1;57.7
74437;BME280;62868;52.360;30.424;2022-10-16T06:34:27;1039.7;;;9.2;57.5
74437;BME280;62868;52.360;30.424;2022-10-16T06:38:41;1039.8;;;9.6;57.2
74437;BME280;62868;52.360;30.424;2022-10-16T06:43:53;1039.9;;;9.8;56.9
74437;BME280;62868;52.360;30.424;2022-10-16T06:48:39;1039.9;;;10;56.7
74437;BME280;62868;52.360;30.424;2022-10-16T06:54:23;1039.9;;;10.3;56.3
74437;BME280;62868;52.360;30.424;2022-10-16T06:59:15;1039.9;;;10.6;56.1
74437;BME280;62868;52.360;30.424;2022-10-16T07:04:15;1040;;;10.9;55.7
74437;BME280;62868;52.360;30.424;2022-10-16T07:09:17;1040;;;11.4;55.3
74437;BME280;62868;52.360;30.424;2022-10-16T07:14:18;1040;;;11.7;54.9
74437;BME280;62868;52.360;30.424;2022-10-16T07:19:15;1039.9;;;12;54.5
74437;BME280;62868;52.360;30.424;2022-10-16T07:24:14;1039.9;;;12.2;54.2
74437;BME280;62868;52.360;30.424;2022-10-16T07:29:26;1040;;;12.5;53.8
74437;BME280;62868;52.360;30.424;2022-10-16T07:33:40;1039.9;;;12.6;53.6
74437;BME280;62868;52.360;30.424;2022-10-16T07:38:53;1039.9;;;12.8;53.3
74437;BME280;62868;52.360;30.424;2022-10-16T07:43:54;1039.9;;;12.9;53
74437;BME280;62868;52.360;30.424;2022-10-16T07:49:25;1039.9;;;13;52.6
74437;BME280;62868;52.360;30.424;2022-10-16T07:54:27;1040;;;13;52.5
74437;BME280;62868;52.360;30.424;2022-10-16T07:59:03;1040;;;13.1;52.3
74437;BME280;62868;52.360;30.424;2022-10-16T08:04:27;1040;;;13.2;51.9
74437;BME280;62868;52.360;30.424;2022-10-16T08:09:13;1040.2;;;13.3;51.7
74437;BME280;62868;52.360;30.424;2022-10-16T08:13:53;1040.2;;;13.6;51.3
74437;BME280;62868;52.360;30.424;2022-10-16T08:19:03;1040.1;;;14;50.9
74437;BME280;62868;52.360;30.424;2022-10-16T08:23:53;1040;;;14.3;50.4
74437;BME280;62868;52.360;30.424;2022-10-16T08:28:49;1039.9;;;14.5;50.1
74437;BME280;62868;52.360;30.424;2022-10-16T08:34:13;1039.7;;;14.5;49.9
74437;BME280;62868;52.360;30.424;2022-10-16T08:38:39;1039.6;;;14.6;49.5
74437;BME280;62868;52.360;30.424;2022-10-16T08:44:21;1039.6;;;14.8;49.2
74437;BME280;62868;52.360;30.424;2022-10-16T08:48:43;1039.6;;;15;48.7
74437;BME280;62868;52.360;30.424;2022-10-16T08:54:02;1039.6;;;15.1;48.6
74437;BME280;62868;52.360;30.424;2022-10-16T08:59:04;1039.6;;;15.3;48.1
74437;BME280;62868;52.360;30.424;2022-10-16T09:04:21;1039.7;;;15.5;47.7
74437;BME280;62868;52.360;30.424;2022-10-16T09:09:32;1039.6;;;15.8;47.3
74437;BME280;62868;52.360;30.424;2022-10-16T09:13:43;1039.6;;;16;46.9
74437;BME280;62868;52.360;30.424;2022-10-16T09:18:40;1039.6;;;16.1;46.5
74437;BME280;62868;52.360;30.424;2022-10-16T09:23:39;1039.7;;;16.3;46.1
74437;BME280;62868;52.360;30.424;2022-10-16T09:29:14;1039.7;;;16.6;45.8
74437;BME280;62868;52.360;30.424;2022-10-16T09:34:04;1039.7;;;16.7;45.5
74437;BME280;62868;52.360;30.424;2022-10-16T09:39:08;1039.7;;;16.7;45.3
74437;BME280;62868;52.360;30.424;2022-10-16T09:44:16;1039.8;;;16.8;44.9
74437;BME280;62868;52.360;30.424;2022-10-16T09:49:21;1039.8;;;16.8;44.4
74437;BME280;62868;52.360;30.424;2022-10-16T09:54:16;1039.8;;;16.8;44.2
74437;BME280;62868;52.360;30.424;2022-10-16T09:59:28;1039.8;;;16.8;43.6
74437;BME280;62868;52.360;30.424;2022-10-16T10:03:40;1039.8;;;16.8;43.3
74437;BME280;62868;52.360;30.424;2022-10-16T10:08:39;1039.8;;;16.9;43
74437;BME280;62868;52.360;30.424;2022-10-16T10:14:03;1039.8;;;16.9;42.6
74437;BME280;62868;52.360;30.424;2022-10-16T10:19:27;1039.8;;;17.1;42.5
74437;BME280;62868;52.360;30.424;2022-10-16T10:24:29;1039.8;;;17.2;42.1
74437;BME280;62868;52.360;30.424;2022-10-16T10:29:06;1039.7;;;17.2;41.8
74437;BME280;62868;52.360;30.424;2022-10-16T10:34:34;1039.6;;;17.2;41.5
74437;BME280;62868;52.360;30.424;2022-10-16T10:39:19;1039.7;;;17.3;41.3
74437;BME280;62868;52.360;30.424;2022-10-16T10:43:56;1039.7;;;17.4;41.1
74437;BME280;62868;52.360;30.424;2022-10-16T10:49:08;1039.7;;;17.4;40.9
74437;BME280;62868;52.360;30.424;2022-10-16T10:54:07;1039.7;;;17.4;40.8
74437;BME280;62868;52.360;30.424;2022-10-16T10:58:57;1039.7;;;17.5;40.8
74437;BME280;62868;52.360;30.424;2022-10-16T11:04:21;1039.7;;;17.5;40.7
74437;BME280;62868;52.360;30.424;2022-10-16T11:08:40;1039.7;;;17.5;40.4
74437;BME280;62868;52.360;30.424;2022-10-16T11:14:26;1039.7;;;17.3;40.3
74437;BME280;62868;52.360;30.424;2022-10-16T11:19:32;1039.7;;;17.4;40.1
74437;BME280;62868;52.360;30.424;2022-10-16T11:24:06;1039.6;;;17.2;40.1
74437;BME280;62868;52.360;30.424;2022-10-16T11:29:07;1039.6;;;17.1;40.1
74437;BME280;62868;52.360;30.424;2022-10-16T11:34:28;1039.4;;;16.9;40
74437;BME280;62868;52.360;30.424;2022-10-16T11:39:26;1039.4;;;16.8;39.9
74437;BME280;62868;52.360;30.424;2022-10-16T11:43:57;1039.3;;;16.8;40
74437;BME280;62868;52.360;30.424;2022-10-16T11:48:55;1039.3;;;16.7;39.9
74437;BME280;62868;52.360;30.424;2022-10-16T11:53:55;1039.2;;;16.6;39.9
74437;BME280;62868;52.360;30.424;2022-10-16T11:59:17;1039.2;;;16.5;39.9
74437;BME280;62868;52.360;30.424;2022-10-16T12:04:17;1039.3;;;16.4;39.9
74437;BME280;62868;52.360;30.424;2022-10-16T12:09:04;1039.3;;;16.4;39.9
74437;BME280;62868;52.360;30.424;2022-10-16T12:14:22;1039.4;;;16.3;40
74437;BME280;62868;52.360;30.424;2022-10-16T12:19:18;1039.4;;;16.2;40
74437;BME280;62868;52.360;30.424;2022-10-16T12:23:49;1039.4;;;16.1;40.1
74437;BME280;62868;52.360;30.424;2022-10-16T12:29:20;1039.4;;;16.1;40.2
74437;BME280;62868;52.360;30.424;2022-10-16T12:34:28;1039.4;;;16;40.2
74437;BME280;62868;52.360;30.424;2022-10-16T12:38:45;1039.4;;;16;40.2
74437;BME280;62868;52.360;30.424;2022-10-16T12:43:54;1039.3;;;15.9;40.2
74437;BME280;62868;52.360;30.424;2022-10-16T12:49:29;1039.3;;;15.8;40.2
74437;BME280;62868;52.360;30.424;2022-10-16T12:54:18;1039.2;;;15.7;40.3
74437;BME280;62868;52.360;30.424;2022-10-16T12:59:24;1039.2;;;15.6;40.3
74437;BME280;62868;52.360;30.424;2022-10-16T13:04:10;1039.1;;;15.5;40.3
74437;BME280;62868;52.360;30.424;2022-10-16T13:09:19;1039;;;15.4;40.4
74437;BME280;62868;52.360;30.424;2022-10-16T13:14:35;1039.1;;;15.4;40.4
74437;BME280;62868;52.360;30.424;2022-10-16T13:19:02;1039.1;;;15.5;40.4
74437;BME280;62868;52.360;30.424;2022-10-16T13:23:48;1039.1;;;15.5;40.3
74437;BME280;62868;52.360;30.424;2022-10-16T13:29:06;1039.1;;;15.3;40.4
74437;BME280;62868;52.360;30.424;2022-10-16T13:34:17;1039.1;;;15.1;40.6
74437;BME280;62868;52.360;30.424;2022-10-16T13:39:09;1039.2;;;15;40.6
74437;BME280;62868;52.360;30.424;2022-10-16T13:43:50;1039.2;;;14.8;40.7
74437;BME280;62868;52.360;30.424;2022-10-16T13:49:30;1039.1;;;14.8;40.9
74437;BME280;62868;52.360;30.424;2022-10-16T13:54:30;1039.1;;;14.6;41.1
74437;BME280;62868;52.360;30.424;2022-10-16T13:59:22;1039;;;14.5;41.2
74437;BME280;62868;52.360;30.424;2022-10-16T14:04:26;1038.9;;;14.4;41.4
74437;BME280;62868;52.360;30.424;2022-10-16T14:09:30;1038.8;;;14.2;41.5
74437;BME280;62868;52.360;30.424;2022-10-16T14:14:31;1038.8;;;14.1;41.8
74437;BME280;62868;52.360;30.424;2022-10-16T14:18:55;1038.8;;;13.9;41.9
74437;BME280;62868;52.360;30.424;2022-10-16T14:24:12;1038.8;;;13.9;42
74437;BME280;62868;52.360;30.424;2022-10-16T14:29:26;1038.8;;;13.7;42.2
74437;BME280;62868;52.360;30.424;2022-10-16T14:34:30;1038.8;;;13.6;42.4
74437;BME280;62868;52.360;30.424;2022-10-16T14:39:06;1038.9;;;13.6;42.5
74437;BME280;62868;52.360;30.424;2022-10-16T14:44:18;1038.9;;;13.5;42.6
74437;BME280;62868;52.360;30.424;2022-10-16T14:49:16;1038.9;;;13.4;42.7
74437;BME280;62868;52.360;30.424;2022-10-16T14:53:40;1039;;;13.3;42.9
74437;BME280;62868;52.360;30.424;2022-10-16T14:59:14;1039.2;;;13.2;43.1
74437;BME280;62868;52.360;30.424;2022-10-16T15:04:30;1039.3;;;13;43.4
74437;BME280;62868;52.360;30.424;2022-10-16T15:08:54;1039.3;;;12.8;43.6
74437;BME280;62868;52.360;30.424;2022-10-16T15:13:54;1039.3;;;12.7;43.8
74437;BME280;62868;52.360;30.424;2022-10-16T15:19:30;1039.3;;;12.6;44
74437;BME280;62868;52.360;30.424;2022-10-16T15:24:20;1039.3;;;12.5;44.2
74437;BME280;62868;52.360;30.424;2022-10-16T15:29:28;1039.2;;;12.3;44.4
74437;BME280;62868;52.360;30.424;2022-10-16T15:34:16;1039.2;;;12.2;44.6
74437;BME280;62868;52.360;30.424;2022-10-16T15:39:18;1039.1;;;12.1;44.9
74437;BME280;62868;52.360;30.424;2022-10-16T15:44:28;1039.2;;;12;45.1
74437;BME280;62868;52.360;30.424;2022-10-16T15:49:04;1039.4;;;11.9;45.3
74437;BME280;62868;52.360;30.424;2022-10-16T15:54:04;1039.5;;;11.8;45.5
74437;BME280;62868;52.360;30.424;2022-10-16T15:58:54;1039.5;;;11.7;45.7
74437;BME280;62868;52.360;30.424;2022-10-16T16:03:56;1039.4;;;11.7;45.8
74437;BME280;62868;52.360;30.424;2022-10-16T16:08:50;1039.4;;;11.6;46.1
74437;BME280;62868;52.360;30.424;2022-10-16T16:14:04;1039.6;;;11.4;46.3
74437;BME280;62868;52.360;30.424;2022-10-16T16:19:28;1039.7;;;11.4;46.5
74437;BME280;62868;52.360;30.424;2022-10-16T16:24:26;1039.7;;;11.2;46.8
74437;BME280;62868;52.360;30.424;2022-10-16T16:29:04;1039.8;;;11.2;47
74437;BME280;62868;52.360;30.424;2022-10-16T16:34:28;1039.8;;;11.1;47.2
74437;BME280;62868;52.360;30.424;2022-10-16T16:39:16;1039.9;;;11;47.3
74437;BME280;62868;52.360;30.424;2022-10-16T16:44:26;1039.9;;;11;47.5
74437;BME280;62868;52.360;30.424;2022-10-16T16:48:50;1040;;;10.9;47.7
74437;BME280;62868;52.360;30.424;2022-10-16T16:54:16;1040;;;10.8;47.8
74437;BME280;62868;52.360;30.424;2022-10-16T16:58:54;1040;;;10.7;48.1
74437;BME280;62868;52.360;30.424;2022-10-16T17:04:14;1040.1;;;10.6;48.2
74437;BME280;62868;52.360;30.424;2022-10-16T17:09:03;1040.1;;;10.6;48.5
74437;BME280;62868;52.360;30.424;2022-10-16T17:14:18;1040.1;;;10.5;48.6
74437;BME280;62868;52.360;30.424;2022-10-16T17:19:13;1040;;;10.4;48.8
74437;BME280;62868;52.360;30.424;2022-10-16T17:24:12;1039.9;;;10.3;49
74437;BME280;62868;52.360;30.424;2022-10-16T17:29:16;1039.8;;;10.2;49.1
74437;BME280;62868;52.360;30.424;2022-10-16T17:34:26;1039.9;;;10.2;49.4
74437;BME280;62868;52.360;30.424;2022-10-16T17:38:54;1040;;;10.1;49.5
74437;BME280;62868;52.360;30.424;2022-10-16T17:43:40;1040.1;;;10.1;49.6
74437;BME280;62868;52.360;30.424;2022-10-16T17:48:40;1040.3;;;10;49.8
74437;BME280;62868;52.360;30.424;2022-10-16T17:54:02;1040.2;;;10;50
74437;BME280;62868;52.360;30.424;2022-10-16T17:59:26;1040.2;;;9.9;50.2
74437;BME280;62868;52.360;30.424;2022-10-16T18:04:04;1040.1;;;9.8;50.3
74437;BME280;62868;52.360;30.424;2022-10-16T18:09:24;1040.2;;;9.8;50.4
74437;BME280;62868;52.360;30.424;2022-10-16T18:14:15;1040.2;;;9.7;50.6
74437;BME280;62868;52.360;30.424;2022-10-16T18:19:04;1040.1;;;9.7;50.8
74437;BME280;62868;52.360;30.424;2022-10-16T18:23:54;1040;;;9.6;50.9
74437;BME280;62868;52.360;30.424;2022-10-16T18:28:54;1040.1;;;9.6;51
74437;BME280;62868;52.360;30.424;2022-10-16T18:33:56;1040.1;;;9.5;51.3
74437;BME280;62868;52.360;30.424;2022-10-16T18:38:40;1040.1;;;9.4;51.4
74437;BME280;62868;52.360;30.424;2022-10-16T18:43:54;1040;;;9.4;51.6
74437;BME280;62868;52.360;30.424;2022-10-16T18:49:28;1040.1;;;9.3;51.6
74437;BME280;62868;52.360;30.424;2022-10-16T18:54:16;1040.1;;;9.3;51.8
74437;BME280;62868;52.360;30.424;2022-10-16T18:59:04;1040;;;9.3;51.9
74437;BME280;62868;52.360;30.424;2022-10-16T19:04:04;1040.1;;;9.3;52
74437;BME280;62868;52.360;30.424;2022-10-16T19:09:14;1040.2;;;9.2;52.1
74437;BME280;62868;52.360;30.424;2022-10-16T19:14:26;1040.4;;;9.2;52.2
74437;BME280;62868;52.360;30.424;2022-10-16T19:18:56;1040.4;;;9.2;52.3
74437;BME280;62868;52.360;30.424;2022-10-16T19:23:54;1040.4;;;9.2;52.3
74437;BME280;62868;52.360;30.424;2022-10-16T19:29:05;1040.4;;;9.2;52.4
74437;BME280;62868;52.360;30.424;2022-10-16T19:34:18;1040.4;;;9.2;52.4
74437;BME280;62868;52.360;30.424;2022-10-16T19:39:04;1040.4;;;9.2;52.5
74437;BME280;62868;52.360;30.424;2022-10-16T19:44:24;1040.4;;;9.1;52.6
74437;BME280;62868;52.360;30.424;2022-10-16T19:49:15;1040.4;;;9;52.7
74437;BME280;62868;52.360;30.424;2022-10-16T19:54:16;1040.4;;;9;52.8
74437;BME280;62868;52.360;30.424;2022-10-16T19:59:02;1040.3;;;8.9;53
74437;BME280;62868;52.360;30.424;2022-10-16T20:04:28;1040.3;;;8.8;53.1
74437;BME280;62868;52.360;30.424;2022-10-16T20:08:54;1040.3;;;8.8;53.2
74437;BME280;62868;52.360;30.424;2022-10-16T20:13:40;1040.3;;;8.8;53.1
74437;BME280;62868;52.360;30.424;2022-10-16T20:18:54;1040.3;;;8.8;53.1
74437;BME280;62868;52.360;30.424;2022-10-16T20:24:26;1040.3;;;8.7;53.2
74437;BME280;62868;52.360;30.424;2022-10-16T20:29:26;1040.3;;;8.7;53.3
74437;BME280;62868;52.360;30.424;2022-10-16T20:34:04;1040.3;;;8.7;53.3
74437;BME280;62868;52.360;30.424;2022-10-16T20:39:30;1040.3;;;8.7;53.3
74437;BME280;62868;52.360;30.424;2022-10-16T20:44:16;1040.4;;;8.7;53.3
74437;BME280;62868;52.360;30.424;2022-10-16T20:49:06;1040.4;;;8.7;53.3
74437;BME280;62868;52.360;30.424;2022-10-16T20:54:06;1040.5;;;8.7;53.3
74437;BME280;62868;52.360;30.424;2022-10-16T20:58:54;1040.5;;;8.7;53.3
74437;BME280;62868;52.360;30.424;2022-10-16T21:03:40;1040.5;;;8.7;53.3
74437;BME280;62868;52.360;30.424;2022-10-16T21:08:40;1040.5;;;8.7;53.3
74437;BME280;62868;52.360;30.424;2022-10-16T21:14:06;1040.5;;;8.7;53.4
74437;BME280;62868;52.360;30.424;2022-10-16T21:18:40;1040.5;;;8.8;53.3
74437;BME280;62868;52.360;30.424;2022-10-16T21:24:28;1040.5;;;8.8;53.3
74437;BME280;62868;52.360;30.424;2022-10-16T21:29:16;1040.6;;;8.9;53.3
74437;BME280;62868;52.360;30.424;2022-10-16T21:34:04;1040.5;;;8.9;53.3
74437;BME280;62868;52.360;30.424;2022-10-16T21:39:28;1040.5;;;8.9;53.3
74437;BME280;62868;52.360;30.424;2022-10-16T21:44:16;1040.5;;;8.9;53.3
74437;BME280;62868;52.360;30.424;2022-10-16T21:49:30;1040.5;;;8.8;53.4
74437;BME280;62868;52.360;30.424;2022-10-16T21:53:54;1040.5;;;8.8;53.5
74437;BME280;62868;52.360;30.424;2022-10-16T21:58:52;1040.5;;;8.7;53.6
74437;BME280;62868;52.360;30.424;2022-10-16T22:04:30;1040.5;;;8.7;53.7
74437;BME280;62868;52.360;30.424;2022-10-16T22:09:16;1040.5;;;8.6;53.7
74437;BME280;62868;52.360;30.424;2022-10-16T22:14:02;1040.4;;;8.5;53.9
74437;BME280;62868;52.360;30.424;2022-10-16T22:19:08;1040.4;;;8.5;54
74437;BME280;62868;52.360;30.424;2022-10-16T22:23:42;1040.4;;;8.5;54
74437;BME280;62868;52.360;30.424;2022-10-16T22:28:54;1040.4;;;8.4;54
74437;BME280;62868;52.360;30.424;2022-10-16T22:34:16;1040.5;;;8.4;54.1
74437;BME280;62868;52.360;30.424;2022-10-16T22:39:24;1040.5;;;8.4;54.1
74437;BME280;62868;52.360;30.424;2022-10-16T22:43:54;1040.5;;;8.4;54.2
74437;BME280;62868;52.360;30.424;2022-10-16T22:48:54;1040.5;;;8.3;54.3
74437;BME280;62868;52.360;30.424;2022-10-16T22:54:28;1040.5;;;8.3;54.3
74437;BME280;62868;52.360;30.424;2022-10-16T22:59:16;1040.5;;;8.3;54.4
74437;BME280;62868;52.360;30.424;2022-10-16T23:04:24;1040.6;;;8.3;54.4
74437;BME280;62868;52.360;30.424;2022-10-16T23:09:04;1040.6;;;8.3;54.4
74437;BME280;62868;52.360;30.424;2022-10-16T23:14:18;1040.7;;;8.4;54.4
74437;BME280;62868;52.360;30.424;2022-10-16T23:19:26;1040.6;;;8.4;54.4
74437;BME280;62868;52.360;30.424;2022-10-16T23:23:40;1040.7;;;8.4;54.4
74437;BME280;62868;52.360;30.424;2022-10-16T23:28:46;1040.7;;;8.5;54.4
74437;BME280;62868;52.360;30.424;2022-10-16T23:33:40;1040.6;;;8.6;54.3
74437;BME280;62868;52.360;30.424;2022-10-16T23:39:04;1040.6;;;8.6;54.3
74437;BME280;62868;52.360;30.424;2022-10-16T23:44:02;1040.5;;;8.7;54.2
74437;BME280;62868;52.360;30.424;2022-10-16T23:49:04;1040.5;;;8.8;54.2
74437;BME280;62868;52.360;30.424;2022-10-16T23:54:22;1040.5;;;8.8;54.2
74437;BME280;62868;52.360;30.424;2022-10-16T23:59:22;1040.5;;;8.8;54.2
